Flight Track Log - Related Links

Times and Time Zones

All times are in EDT time to prevent confusion due to time zone crossing. See the SWA378 flight status page for this flight to view local times or setup timezone preferences in your user account.

Time Position Orientation Groundspeed Altitude Reporting Facility
EDT Latitude Longitude Course Direction KTS MPH feet Rate Location/Type
Fri 11:10:51 AM 37.3833 -121.9500 322° Northwest 177 204 900  Level Northern Cal TRACON
Fri 11:11:51 AM 37.4167 -121.9833 322° Northwest 213 245 3,000 2,100 Climbing Northern Cal TRACON
Fri 11:12:51 AM 37.4500 -121.9167 58° Northeast 247 284 5,100 2,083 Climbing Northern Cal TRACON
Fri 11:14:15 AM 37.3681 -121.8350 142° Southeast 274 315 8,000 2,317 Climbing Oakland Center
Fri 11:15:16 AM 37.3067 -121.7636 137° Southeast 309 356 10,700 2,927 Climbing Oakland Center
Fri 11:16:18 AM 37.2317 -121.6783 138° Southeast 356 410 14,000 2,927 Climbing Oakland Center
Fri 11:17:19 AM 37.1544 -121.5906 138° Southeast 373 429 16,700 2,780 Climbing Oakland Center
Fri 11:18:21 AM 37.0669 -121.4961 139° Southeast 393 452 19,700 2,585 Climbing Oakland Center
Fri 11:19:22 AM 36.9844 -121.4039 138° Southeast 397 457 22,000 2,049 Climbing Oakland Center
Fri 11:20:24 AM 36.8953 -121.3064 139° Southeast 421 484 23,900 1,951 Climbing Oakland Center
Fri 11:21:25 AM 36.8014 -121.2047 139° Southeast 434 499 26,000 1,854 Climbing Oakland Center
Fri 11:22:27 AM 36.7067 -121.1036 139° Southeast 446 513 27,700 1,854 Climbing Oakland Center
Fri 11:23:28 AM 36.5906 -120.9803 140° Southeast 455 524 29,800 1,854 Climbing Oakland Center
Fri 11:24:30 AM 36.4931 -120.8739 139° Southeast 464 534 31,500 1,805 Climbing Oakland Center
Fri 11:25:31 AM 36.4042 -120.7581 134° Southeast 463 533 33,500 1,707 Climbing Oakland Center
Fri 11:26:33 AM 36.3244 -120.6303 128° Southeast 466 536 35,000 1,317 Climbing Oakland Center
Fri 11:27:34 AM 36.2439 -120.5031 128° Southeast 468 539 36,200 976 Climbing Oakland Center
Fri 11:28:36 AM 36.1617 -120.3750 128° Southeast 472 543 37,000 390 Climbing Oakland Center
Fri 11:29:37 AM 36.0792 -120.2456 128° Southeast 476 548 37,000  Level Oakland Center
Fri 11:30:39 AM 35.9950 -120.1153 129° Southeast 481 554 37,000  Level Oakland Center
Fri 11:31:40 AM 35.9103 -119.9853 129° Southeast 483 556 37,000  Level Oakland Center
Fri 11:32:42 AM 35.8094 -119.8283 128° Southeast 483 556 37,000  Level Oakland Center
Fri 11:33:43 AM 35.7242 -119.6992 129° Southeast 483 556 37,000  Level Oakland Center
Fri 11:34:45 AM 35.6406 -119.5700 129° Southeast 481 554 37,000 -49 Level Oakland Center
Fri 11:35:46 AM 35.5564 -119.4414 129° Southeast 480 552 36,900 -102 Descending Oakland Center
Fri 11:36:43 AM 35.4733 -119.3150 129° Southeast 474 545 36,800 -555 Descending Los Angeles Center
Fri 11:37:45 AM 35.3906 -119.1903 129° Southeast 471 542 35,800 -968 Descending Los Angeles Center
Fri 11:38:47 AM 35.3089 -119.0644 128° Southeast 471 542 34,800 -919 Descending Los Angeles Center
Fri 11:39:49 AM 35.2261 -118.9408 129° Southeast 470 541 33,900 -912 Descending Los Angeles Center
Fri 11:40:52 AM 35.1414 -118.8169 130° Southeast 472 543 32,900 -432 Descending Los Angeles Center
Fri 11:41:54 AM 35.0581 -118.6928 129° Southeast 473 544 33,000 -1,161 Climbing Los Angeles Center
Fri 11:42:56 AM 34.9553 -118.5400 129° Southeast 482 555 30,500 -2,516 Descending Los Angeles Center
Fri 11:43:58 AM 34.8706 -118.4131 129° Southeast 486 559 27,800 -2,371 Descending Los Angeles Center
Fri 11:45:00 AM 34.7878 -118.2933 130° Southeast 473 544 25,600 -2,177 Descending Los Angeles Center
Fri 11:46:02 AM 34.7097 -118.1808 130° Southeast 451 519 23,300 -2,177 Descending Los Angeles Center
Fri 11:47:04 AM 34.6344 -118.0708 130° Southeast 430 495 21,100 -2,226 Descending Los Angeles Center
Fri 11:48:06 AM 34.5792 -117.9494 119° Southeast 415 478 18,700 -2,688 Descending Los Angeles Center
Fri 11:49:09 AM 34.5444 -117.7897 105° East 411 473 15,500 -2,208 Descending Los Angeles Center
Fri 11:50:11 AM 34.4819 -117.6864 126° Southeast 388 447 14,100 -726 Descending Los Angeles Center
Fri 11:51:13 AM 34.4239 -117.5961 128° Southeast 347 399 14,000 -387 Descending Los Angeles Center
Fri 11:52:15 AM 34.3653 -117.4875 123° Southeast 332 382 13,300 -1,355 Descending Los Angeles Center
Fri 11:53:17 AM 34.3075 -117.4208 136° Southeast 292 336 11,200 -2,468 Descending Los Angeles Center
Fri 11:54:19 AM 34.2272 -117.4044 170° South 286 329 8,200 -3,048 Descending Los Angeles Center
Fri 11:55:21 AM 34.1542 -117.4256 193° South 269 310 4,900 -2,538 Descending Los Angeles Center
Fri 11:56:03 AM 34.1000 -117.4500 200° South 230 265 3,800 -1,118 Descending Southern California TRACON
Fri 11:57:03 AM 34.0500 -117.4667 195° South 164 189 3,000 -893 Descending Southern California TRACON
Fri 11:58:04 AM 34.0500 -117.5167 270° West 142 163 2,000 -893 Descending Southern California TRACON
Fri 11:59:04 AM 34.0500 -117.5667 270° West 140 161 1,200 -800 Descending Southern California TRACON

Login

Don't have an account? Register now (free) for customized features, flight alerts, and more!